»·PEaware :: N21XG L77-KPSP

N21XG :: L77-KPSP

FLIGHT INFORMATION

Flight Status: Arrived
Operator: Privately registered:
United States
More flights under this callsign
Pilot: Logan D. (20254)
Aircraft: Unknown
(PRIM)
More flights by this aircraft type
Origin: L77 Chiriaco Summit
United States
Destination: KPSP Palm Springs Intl
United States
More flights between these airports :: More routes between these airports
Route: L77 CLEEE KPSP
File this flight plan on PilotEdge
Remarks:
Altitude:
(Current/Filed)
4,500ft
Speed:
(Current/Filed)
120kts
Departed: 27-Apr-19 10:16 AM
Arrived: 27-Apr-19 10:42 AM
Distance/Time
Traveled:
41nm/0:26
Distance/Time
To Go:
Arrived

Flight Plot

Page will automatically refresh every two minutes.


Map Options




Map Legend


Flown Route
Filed Route
Departure Airport
Arrival Airport
Navaid (VOR, NDB)
Fix

Horizontal Profiles

Position Reports

Time Latitude Longitude Heading Altitude Ground
Speed
27-Apr-19 09:54 33.661878 -115.719151 229 1712ft 0kts
27-Apr-19 09:55 33.661878 -115.719151 229 1712ft 0kts
27-Apr-19 09:57 33.661878 -115.719151 229 1712ft 0kts
27-Apr-19 09:57 33.661878 -115.719151 229 1712ft 0kts
27-Apr-19 09:58 33.661878 -115.719151 229 1712ft 0kts
27-Apr-19 09:59 33.661878 -115.719151 229 1712ft 0kts
27-Apr-19 10:00 33.661878 -115.719151 229 1712ft 0kts
27-Apr-19 10:01 33.661878 -115.719151 229 1712ft 0kts
27-Apr-19 10:02 33.661878 -115.719151 229 1712ft 0kts
27-Apr-19 10:03 33.661878 -115.719151 229 1712ft 0kts
27-Apr-19 10:04 33.661878 -115.719151 229 1712ft 0kts
27-Apr-19 10:05 33.661878 -115.719151 229 1712ft 0kts
27-Apr-19 10:06 33.661878 -115.719151 229 1712ft 0kts
27-Apr-19 10:07 33.661878 -115.719151 229 1712ft 0kts
27-Apr-19 10:08 33.661878 -115.719151 229 1712ft 0kts
27-Apr-19 10:09 33.661878 -115.719151 229 1712ft 0kts
27-Apr-19 10:10 33.661878 -115.719151 229 1712ft 0kts
27-Apr-19 10:11 33.661878 -115.719151 229 1712ft 0kts
27-Apr-19 10:12 33.663020 -115.719851 0 1712ft 11kts
27-Apr-19 10:13 33.663741 -115.717116 74 1712ft 0kts
27-Apr-19 10:14 33.663765 -115.716977 81 1712ft 0kts
27-Apr-19 10:15 33.667398 -115.695152 72 2215ft 95kts
27-Apr-19 10:16 33.682921 -115.694998 277 3614ft 116kts
27-Apr-19 10:17 33.683131 -115.739879 270 4487ft 154kts
27-Apr-19 10:18 33.681997 -115.786884 258 4489ft 125kts
27-Apr-19 10:19 33.674366 -115.825701 259 4491ft 115kts
27-Apr-19 10:20 33.669254 -115.863165 263 4491ft 113kts
27-Apr-19 10:21 33.667361 -115.900566 268 4491ft 112kts
27-Apr-19 10:22 33.667375 -115.938234 272 4464ft 113kts
27-Apr-19 10:23 33.673842 -115.974832 289 4463ft 112kts
27-Apr-19 10:24 33.696453 -115.997536 301 4460ft 112kts
27-Apr-19 10:25 33.701554 -116.035612 292 4438ft 117kts
27-Apr-19 10:26 33.715800 -116.070496 298 4344ft 119kts
27-Apr-19 10:27 33.732069 -116.102205 303 4461ft 110kts
27-Apr-19 10:28 33.744192 -116.135595 280 4463ft 111kts
27-Apr-19 10:29 33.747480 -116.172087 275 4462ft 101kts
27-Apr-19 10:30 33.750411 -116.206972 275 4471ft 108kts
27-Apr-19 10:31 33.753776 -116.243817 275 4477ft 111kts
27-Apr-19 10:32 33.757410 -116.281133 275 4485ft 113kts
27-Apr-19 10:33 33.761251 -116.318798 275 4492ft 114kts
27-Apr-19 10:34 33.764729 -116.352775 275 4488ft 82kts
27-Apr-19 10:35 33.778004 -116.360070 91 4586ft 103kts
27-Apr-19 10:36 33.761703 -116.365537 256 4507ft 125kts
27-Apr-19 10:37 33.759914 -116.410826 272 3638ft 135kts
27-Apr-19 10:38 33.774823 -116.452681 313 1923ft 135kts
27-Apr-19 10:39 33.799070 -116.476976 320 1129ft 101kts
27-Apr-19 10:40 33.819725 -116.495972 322 546ft 80kts
27-Apr-19 10:41 33.828164 -116.503322 25 414ft 0kts
27-Apr-19 10:42 33.827146 -116.500372 324 405ft 0kts
27-Apr-19 10:43 33.827146 -116.500372 324 405ft 0kts
27-Apr-19 10:44 33.827146 -116.500372 324 405ft 0kts
27-Apr-19 10:45 33.827146 -116.500372 324 405ft 0kts
27-Apr-19 10:46 33.827146 -116.500372 324 405ft 0kts
27-Apr-19 10:47 33.827146 -116.500372 324 405ft 0kts
27-Apr-19 10:48 33.827146 -116.500372 324 405ft 0kts
27-Apr-19 10:49 33.827146 -116.500372 324 405ft 0kts
27-Apr-19 10:50 33.827146 -116.500372 324 405ft 0kts
27-Apr-19 10:51 33.827146 -116.500372 324 405ft 0kts
27-Apr-19 10:52 33.827146 -116.500372 324 405ft 0kts
27-Apr-19 10:53 33.827146 -116.500372 324 405ft 0kts
27-Apr-19 10:54 33.827146 -116.500372 324 405ft 0kts
27-Apr-19 10:55 33.827146 -116.500372 324 405ft 0kts

Navigation Log

Ident Type
Flight plan parsing failed, navigation log unavailable